sensor_id;sensor_type;location;lat;lon;timestamp;temperature;humidity
4364;DHT22;15337;48.202;12.770;2022-10-13T00:01:28;13.10;99.90
4364;DHT22;15337;48.202;12.770;2022-10-13T00:03:55;13.10;99.90
4364;DHT22;15337;48.202;12.770;2022-10-13T00:06:23;13.10;99.90
4364;DHT22;15337;48.202;12.770;2022-10-13T00:08:52;13.20;99.90
4364;DHT22;15337;48.202;12.770;2022-10-13T00:11:23;13.10;99.90
4364;DHT22;15337;48.202;12.770;2022-10-13T00:13:53;13.10;99.90
4364;DHT22;15337;48.202;12.770;2022-10-13T00:16:22;13.10;99.90
4364;DHT22;15337;48.202;12.770;2022-10-13T00:18:49;13.10;99.90
4364;DHT22;15337;48.202;12.770;2022-10-13T00:21:17;13.10;99.90
4364;DHT22;15337;48.202;12.770;2022-10-13T00:23:45;13.10;99.90
4364;DHT22;15337;48.202;12.770;2022-10-13T00:26:15;13.10;99.90
4364;DHT22;15337;48.202;12.770;2022-10-13T00:28:42;13.00;99.90
4364;DHT22;15337;48.202;12.770;2022-10-13T00:31:16;13.00;99.90
4364;DHT22;15337;48.202;12.770;2022-10-13T00:33:43;13.00;99.90
4364;DHT22;15337;48.202;12.770;2022-10-13T00:36:10;13.00;99.90
4364;DHT22;15337;48.202;12.770;2022-10-13T00:38:37;13.00;99.90
4364;DHT22;15337;48.202;12.770;2022-10-13T00:41:05;13.00;99.90
4364;DHT22;15337;48.202;12.770;2022-10-13T00:43:54;13.00;99.90
4364;DHT22;15337;48.202;12.770;2022-10-13T00:46:24;12.90;99.90
4364;DHT22;15337;48.202;12.770;2022-10-13T00:48:52;12.90;99.90
4364;DHT22;15337;48.202;12.770;2022-10-13T00:51:22;12.90;99.90
4364;DHT22;15337;48.202;12.770;2022-10-13T00:53:50;12.80;99.90
4364;DHT22;15337;48.202;12.770;2022-10-13T00:56:18;12.80;99.90
4364;DHT22;15337;48.202;12.770;2022-10-13T00:58:49;12.80;99.90
4364;DHT22;15337;48.202;12.770;2022-10-13T01:01:16;12.80;99.90
4364;DHT22;15337;48.202;12.770;2022-10-13T01:03:43;12.80;99.90
4364;DHT22;15337;48.202;12.770;2022-10-13T01:06:10;12.70;99.90
4364;DHT22;15337;48.202;12.770;2022-10-13T01:08:38;12.70;99.90
4364;DHT22;15337;48.202;12.770;2022-10-13T01:11:20;12.70;99.90
4364;DHT22;15337;48.202;12.770;2022-10-13T01:13:58;12.70;99.90
4364;DHT22;15337;48.202;12.770;2022-10-13T01:16:31;12.70;99.90
4364;DHT22;15337;48.202;12.770;2022-10-13T01:19:12;12.60;99.90
4364;DHT22;15337;48.202;12.770;2022-10-13T01:21:47;12.60;99.90
4364;DHT22;15337;48.202;12.770;2022-10-13T01:24:27;12.60;99.90
4364;DHT22;15337;48.202;12.770;2022-10-13T01:27:18;12.60;99.90
4364;DHT22;15337;48.202;12.770;2022-10-13T01:30:04;12.60;99.90
4364;DHT22;15337;48.202;12.770;2022-10-13T01:32:42;12.60;99.90
4364;DHT22;15337;48.202;12.770;2022-10-13T01:35:16;12.60;99.90
4364;DHT22;15337;48.202;12.770;2022-10-13T01:37:49;12.50;99.90
4364;DHT22;15337;48.202;12.770;2022-10-13T01:40:22;12.50;99.90
4364;DHT22;15337;48.202;12.770;2022-10-13T01:42:57;12.50;99.90
4364;DHT22;15337;48.202;12.770;2022-10-13T01:45:30;12.50;99.90
4364;DHT22;15337;48.202;12.770;2022-10-13T01:47:58;12.50;99.90
4364;DHT22;15337;48.202;12.770;2022-10-13T01:50:26;12.50;99.90
4364;DHT22;15337;48.202;12.770;2022-10-13T01:52:53;12.50;99.90
4364;DHT22;15337;48.202;12.770;2022-10-13T01:55:21;12.40;99.90
4364;DHT22;15337;48.202;12.770;2022-10-13T01:57:48;12.50;99.90
4364;DHT22;15337;48.202;12.770;2022-10-13T02:00:17;12.50;99.90
4364;DHT22;15337;48.202;12.770;2022-10-13T02:02:57;12.50;99.90
4364;DHT22;15337;48.202;12.770;2022-10-13T02:05:31;12.50;99.90
4364;DHT22;15337;48.202;12.770;2022-10-13T02:08:05;12.40;99.90
4364;DHT22;15337;48.202;12.770;2022-10-13T02:10:37;12.40;99.90
4364;DHT22;15337;48.202;12.770;2022-10-13T02:13:08;12.40;99.90
4364;DHT22;15337;48.202;12.770;2022-10-13T02:15:39;12.40;99.90
4364;DHT22;15337;48.202;12.770;2022-10-13T02:18:08;12.40;99.90
4364;DHT22;15337;48.202;12.770;2022-10-13T02:20:39;12.40;99.90
4364;DHT22;15337;48.202;12.770;2022-10-13T02:23:09;12.40;99.90
4364;DHT22;15337;48.202;12.770;2022-10-13T02:25:37;12.40;99.90
4364;DHT22;15337;48.202;12.770;2022-10-13T02:28:06;12.40;99.90
4364;DHT22;15337;48.202;12.770;2022-10-13T02:30:33;12.40;99.90
4364;DHT22;15337;48.202;12.770;2022-10-13T02:33:01;12.40;99.90
4364;DHT22;15337;48.202;12.770;2022-10-13T02:35:29;12.40;99.90
4364;DHT22;15337;48.202;12.770;2022-10-13T02:37:58;12.30;99.90
4364;DHT22;15337;48.202;12.770;2022-10-13T02:40:25;12.30;99.90
4364;DHT22;15337;48.202;12.770;2022-10-13T02:42:52;12.30;99.90
4364;DHT22;15337;48.202;12.770;2022-10-13T02:45:19;12.30;99.90
4364;DHT22;15337;48.202;12.770;2022-10-13T02:47:46;12.30;99.90
4364;DHT22;15337;48.202;12.770;2022-10-13T02:50:12;12.20;99.90
4364;DHT22;15337;48.202;12.770;2022-10-13T02:52:41;12.20;99.90
4364;DHT22;15337;48.202;12.770;2022-10-13T02:55:08;12.20;99.90
4364;DHT22;15337;48.202;12.770;2022-10-13T02:57:35;12.10;99.90
4364;DHT22;15337;48.202;12.770;2022-10-13T03:00:04;12.10;99.90
4364;DHT22;15337;48.202;12.770;2022-10-13T03:02:31;12.10;99.90
4364;DHT22;15337;48.202;12.770;2022-10-13T03:04:58;12.10;99.90
4364;DHT22;15337;48.202;12.770;2022-10-13T03:07:25;12.10;99.90
4364;DHT22;15337;48.202;12.770;2022-10-13T03:09:53;12.10;99.90
4364;DHT22;15337;48.202;12.770;2022-10-13T03:12:20;12.00;99.90
4364;DHT22;15337;48.202;12.770;2022-10-13T03:14:47;12.00;99.90
4364;DHT22;15337;48.202;12.770;2022-10-13T03:17:14;12.00;99.90
4364;DHT22;15337;48.202;12.770;2022-10-13T03:19:41;12.00;99.90
4364;DHT22;15337;48.202;12.770;2022-10-13T03:22:08;11.90;99.90
4364;DHT22;15337;48.202;12.770;2022-10-13T03:24:39;11.90;99.90
4364;DHT22;15337;48.202;12.770;2022-10-13T03:27:07;11.90;99.90
4364;DHT22;15337;48.202;12.770;2022-10-13T03:29:34;11.80;99.90
4364;DHT22;15337;48.202;12.770;2022-10-13T03:32:01;11.80;99.90
4364;DHT22;15337;48.202;12.770;2022-10-13T03:34:27;11.80;99.90
4364;DHT22;15337;48.202;12.770;2022-10-13T03:36:54;11.80;99.90
4364;DHT22;15337;48.202;12.770;2022-10-13T03:39:22;11.70;99.90
4364;DHT22;15337;48.202;12.770;2022-10-13T03:41:49;11.70;99.90
4364;DHT22;15337;48.202;12.770;2022-10-13T03:44:17;11.70;99.90
4364;DHT22;15337;48.202;12.770;2022-10-13T03:46:44;11.70;99.90
4364;DHT22;15337;48.202;12.770;2022-10-13T03:49:11;11.70;99.90
4364;DHT22;15337;48.202;12.770;2022-10-13T03:51:38;11.70;99.90
4364;DHT22;15337;48.202;12.770;2022-10-13T03:54:05;11.60;99.90
4364;DHT22;15337;48.202;12.770;2022-10-13T03:56:32;11.60;99.90
4364;DHT22;15337;48.202;12.770;2022-10-13T03:58:59;11.60;99.90
4364;DHT22;15337;48.202;12.770;2022-10-13T04:01:31;11.60;99.90
4364;DHT22;15337;48.202;12.770;2022-10-13T04:03:59;11.60;99.90
4364;DHT22;15337;48.202;12.770;2022-10-13T04:06:28;11.60;99.90
4364;DHT22;15337;48.202;12.770;2022-10-13T04:08:56;11.60;99.90
4364;DHT22;15337;48.202;12.770;2022-10-13T04:11:23;11.50;99.90
4364;DHT22;15337;48.202;12.770;2022-10-13T04:13:50;11.50;99.90
4364;DHT22;15337;48.202;12.770;2022-10-13T04:16:19;11.50;99.90
4364;DHT22;15337;48.202;12.770;2022-10-13T04:18:50;11.50;99.90
4364;DHT22;15337;48.202;12.770;2022-10-13T04:21:17;11.50;99.90
4364;DHT22;15337;48.202;12.770;2022-10-13T04:23:44;11.40;99.90
4364;DHT22;15337;48.202;12.770;2022-10-13T04:26:15;11.40;99.90
4364;DHT22;15337;48.202;12.770;2022-10-13T04:28:43;11.40;99.90
4364;DHT22;15337;48.202;12.770;2022-10-13T04:31:11;11.40;99.90
4364;DHT22;15337;48.202;12.770;2022-10-13T04:33:37;11.40;99.90
4364;DHT22;15337;48.202;12.770;2022-10-13T04:36:07;11.40;99.90
4364;DHT22;15337;48.202;12.770;2022-10-13T04:38:35;11.40;99.90
4364;DHT22;15337;48.202;12.770;2022-10-13T04:41:02;11.30;99.90
4364;DHT22;15337;48.202;12.770;2022-10-13T04:43:29;11.30;99.90
4364;DHT22;15337;48.202;12.770;2022-10-13T04:45:59;11.30;99.90
4364;DHT22;15337;48.202;12.770;2022-10-13T04:48:26;11.30;99.90
4364;DHT22;15337;48.202;12.770;2022-10-13T04:51:01;11.30;99.90
4364;DHT22;15337;48.202;12.770;2022-10-13T04:53:29;11.30;99.90
4364;DHT22;15337;48.202;12.770;2022-10-13T04:56:00;11.30;99.90
4364;DHT22;15337;48.202;12.770;2022-10-13T04:58:28;11.30;99.90
4364;DHT22;15337;48.202;12.770;2022-10-13T05:00:55;11.30;99.90
4364;DHT22;15337;48.202;12.770;2022-10-13T05:03:22;11.30;99.90
4364;DHT22;15337;48.202;12.770;2022-10-13T05:05:49;11.30;99.90
4364;DHT22;15337;48.202;12.770;2022-10-13T05:08:16;11.30;99.90
4364;DHT22;15337;48.202;12.770;2022-10-13T05:10:53;11.30;99.90
4364;DHT22;15337;48.202;12.770;2022-10-13T05:13:20;11.30;99.90
4364;DHT22;15337;48.202;12.770;2022-10-13T05:15:47;11.30;99.90
4364;DHT22;15337;48.202;12.770;2022-10-13T05:18:14;11.40;99.90
4364;DHT22;15337;48.202;12.770;2022-10-13T05:20:41;11.30;99.90
4364;DHT22;15337;48.202;12.770;2022-10-13T05:23:08;11.30;99.90
4364;DHT22;15337;48.202;12.770;2022-10-13T05:25:35;11.30;99.90
4364;DHT22;15337;48.202;12.770;2022-10-13T05:28:04;11.30;99.90
4364;DHT22;15337;48.202;12.770;2022-10-13T05:30:32;11.30;99.90
4364;DHT22;15337;48.202;12.770;2022-10-13T05:32:59;11.30;99.90
4364;DHT22;15337;48.202;12.770;2022-10-13T05:35:26;11.30;99.90
4364;DHT22;15337;48.202;12.770;2022-10-13T05:37:53;11.40;99.90
4364;DHT22;15337;48.202;12.770;2022-10-13T05:40:20;11.40;99.90
4364;DHT22;15337;48.202;12.770;2022-10-13T05:42:48;11.40;99.90
4364;DHT22;15337;48.202;12.770;2022-10-13T05:45:17;11.30;99.90
4364;DHT22;15337;48.202;12.770;2022-10-13T05:47:45;11.40;99.90
4364;DHT22;15337;48.202;12.770;2022-10-13T05:50:12;11.30;99.90
4364;DHT22;15337;48.202;12.770;2022-10-13T05:52:39;11.30;99.90
4364;DHT22;15337;48.202;12.770;2022-10-13T05:55:08;11.40;99.90
4364;DHT22;15337;48.202;12.770;2022-10-13T05:57:38;11.40;99.90
4364;DHT22;15337;48.202;12.770;2022-10-13T06:00:09;11.40;99.90
4364;DHT22;15337;48.202;12.770;2022-10-13T06:02:41;11.40;99.90
4364;DHT22;15337;48.202;12.770;2022-10-13T06:05:12;11.40;99.90
4364;DHT22;15337;48.202;12.770;2022-10-13T06:07:40;11.40;99.90
4364;DHT22;15337;48.202;12.770;2022-10-13T06:10:08;11.40;99.90
4364;DHT22;15337;48.202;12.770;2022-10-13T06:12:36;11.50;99.90
4364;DHT22;15337;48.202;12.770;2022-10-13T06:15:03;11.50;99.90
4364;DHT22;15337;48.202;12.770;2022-10-13T06:17:30;11.50;99.90
4364;DHT22;15337;48.202;12.770;2022-10-13T06:19:58;11.50;99.90
4364;DHT22;15337;48.202;12.770;2022-10-13T06:22:25;11.50;99.90
4364;DHT22;15337;48.202;12.770;2022-10-13T06:24:52;11.60;99.90
4364;DHT22;15337;48.202;12.770;2022-10-13T06:27:19;11.60;99.90
4364;DHT22;15337;48.202;12.770;2022-10-13T06:29:46;11.70;99.90
4364;DHT22;15337;48.202;12.770;2022-10-13T06:32:12;11.70;99.90
4364;DHT22;15337;48.202;12.770;2022-10-13T06:34:39;11.70;99.90
4364;DHT22;15337;48.202;12.770;2022-10-13T06:37:08;11.70;99.90
4364;DHT22;15337;48.202;12.770;2022-10-13T06:39:35;11.70;99.90
4364;DHT22;15337;48.202;12.770;2022-10-13T06:42:01;11.80;99.90
4364;DHT22;15337;48.202;12.770;2022-10-13T06:44:29;11.70;99.90
4364;DHT22;15337;48.202;12.770;2022-10-13T06:46:56;11.80;99.90
4364;DHT22;15337;48.202;12.770;2022-10-13T06:49:24;11.90;99.90
4364;DHT22;15337;48.202;12.770;2022-10-13T06:51:50;11.90;99.90
4364;DHT22;15337;48.202;12.770;2022-10-13T06:54:19;11.90;99.90
4364;DHT22;15337;48.202;12.770;2022-10-13T06:56:46;12.00;99.90
4364;DHT22;15337;48.202;12.770;2022-10-13T06:59:13;12.00;99.90
4364;DHT22;15337;48.202;12.770;2022-10-13T07:01:40;12.00;99.90
4364;DHT22;15337;48.202;12.770;2022-10-13T07:04:06;12.10;99.90
4364;DHT22;15337;48.202;12.770;2022-10-13T07:06:33;12.10;99.90
4364;DHT22;15337;48.202;12.770;2022-10-13T07:09:02;12.20;99.90
4364;DHT22;15337;48.202;12.770;2022-10-13T07:11:31;12.20;99.90
4364;DHT22;15337;48.202;12.770;2022-10-13T07:13:58;12.30;99.90
4364;DHT22;15337;48.202;12.770;2022-10-13T07:16:25;12.30;99.90
4364;DHT22;15337;48.202;12.770;2022-10-13T07:18:52;12.30;99.90
4364;DHT22;15337;48.202;12.770;2022-10-13T07:21:19;12.40;99.90
4364;DHT22;15337;48.202;12.770;2022-10-13T07:23:46;12.40;99.90
4364;DHT22;15337;48.202;12.770;2022-10-13T07:26:14;12.50;99.90
4364;DHT22;15337;48.202;12.770;2022-10-13T07:28:43;12.60;99.90
4364;DHT22;15337;48.202;12.770;2022-10-13T07:31:13;12.60;99.90
4364;DHT22;15337;48.202;12.770;2022-10-13T07:33:41;12.60;99.90
4364;DHT22;15337;48.202;12.770;2022-10-13T07:36:09;12.70;99.90
4364;DHT22;15337;48.202;12.770;2022-10-13T07:38:36;12.80;99.90
4364;DHT22;15337;48.202;12.770;2022-10-13T07:41:05;12.80;99.90
4364;DHT22;15337;48.202;12.770;2022-10-13T07:43:32;12.80;99.90
4364;DHT22;15337;48.202;12.770;2022-10-13T07:46:01;12.90;99.90
4364;DHT22;15337;48.202;12.770;2022-10-13T07:48:29;13.00;99.90
4364;DHT22;15337;48.202;12.770;2022-10-13T07:50:56;13.10;99.90
4364;DHT22;15337;48.202;12.770;2022-10-13T07:53:23;13.10;99.90
4364;DHT22;15337;48.202;12.770;2022-10-13T07:55:50;13.10;99.90
4364;DHT22;15337;48.202;12.770;2022-10-13T07:58:17;13.20;99.90
4364;DHT22;15337;48.202;12.770;2022-10-13T08:00:44;13.30;99.90
4364;DHT22;15337;48.202;12.770;2022-10-13T08:03:12;13.30;99.90
4364;DHT22;15337;48.202;12.770;2022-10-13T08:05:39;13.40;99.90
4364;DHT22;15337;48.202;12.770;2022-10-13T08:08:06;13.40;99.90
4364;DHT22;15337;48.202;12.770;2022-10-13T08:10:33;13.60;99.90
4364;DHT22;15337;48.202;12.770;2022-10-13T08:13:00;13.60;99.90
4364;DHT22;15337;48.202;12.770;2022-10-13T08:15:26;13.60;99.90
4364;DHT22;15337;48.202;12.770;2022-10-13T08:17:53;13.70;99.90
4364;DHT22;15337;48.202;12.770;2022-10-13T08:20:21;13.70;99.90
4364;DHT22;15337;48.202;12.770;2022-10-13T08:22:48;13.70;99.90
4364;DHT22;15337;48.202;12.770;2022-10-13T08:25:15;13.80;99.90
4364;DHT22;15337;48.202;12.770;2022-10-13T08:27:42;13.80;99.90
4364;DHT22;15337;48.202;12.770;2022-10-13T08:30:10;13.90;99.90
4364;DHT22;15337;48.202;12.770;2022-10-13T08:32:37;13.90;99.90
4364;DHT22;15337;48.202;12.770;2022-10-13T08:35:04;13.90;99.90
4364;DHT22;15337;48.202;12.770;2022-10-13T08:37:33;14.00;99.90
4364;DHT22;15337;48.202;12.770;2022-10-13T08:39:59;14.10;99.90
4364;DHT22;15337;48.202;12.770;2022-10-13T08:42:26;14.10;99.90
4364;DHT22;15337;48.202;12.770;2022-10-13T08:44:56;14.20;99.90
4364;DHT22;15337;48.202;12.770;2022-10-13T08:47:32;14.30;99.90
4364;DHT22;15337;48.202;12.770;2022-10-13T08:50:04;14.40;99.90
4364;DHT22;15337;48.202;12.770;2022-10-13T08:52:45;14.40;99.90
4364;DHT22;15337;48.202;12.770;2022-10-13T08:55:20;14.50;99.90
4364;DHT22;15337;48.202;12.770;2022-10-13T08:57:49;14.60;99.90
4364;DHT22;15337;48.202;12.770;2022-10-13T09:00:16;14.70;99.90
4364;DHT22;15337;48.202;12.770;2022-10-13T09:02:44;14.70;99.90
4364;DHT22;15337;48.202;12.770;2022-10-13T09:05:15;14.80;99.90
4364;DHT22;15337;48.202;12.770;2022-10-13T09:07:45;14.90;99.90
4364;DHT22;15337;48.202;12.770;2022-10-13T09:10:13;15.10;99.90
4364;DHT22;15337;48.202;12.770;2022-10-13T09:12:41;15.10;99.90
4364;DHT22;15337;48.202;12.770;2022-10-13T09:15:09;15.20;99.90
4364;DHT22;15337;48.202;12.770;2022-10-13T09:17:38;15.30;99.90
4364;DHT22;15337;48.202;12.770;2022-10-13T09:20:14;15.40;99.90
4364;DHT22;15337;48.202;12.770;2022-10-13T09:22:59;15.50;99.90
4364;DHT22;15337;48.202;12.770;2022-10-13T09:25:27;15.60;99.90
4364;DHT22;15337;48.202;12.770;2022-10-13T09:27:55;15.70;99.90
4364;DHT22;15337;48.202;12.770;2022-10-13T09:30:31;15.80;99.90
4364;DHT22;15337;48.202;12.770;2022-10-13T09:33:19;15.90;99.90
4364;DHT22;15337;48.202;12.770;2022-10-13T09:35:49;16.00;99.90
4364;DHT22;15337;48.202;12.770;2022-10-13T09:38:32;16.10;99.90
4364;DHT22;15337;48.202;12.770;2022-10-13T09:41:02;16.00;99.90
4364;DHT22;15337;48.202;12.770;2022-10-13T09:43:32;16.20;99.90
4364;DHT22;15337;48.202;12.770;2022-10-13T09:46:01;16.30;99.90
4364;DHT22;15337;48.202;12.770;2022-10-13T09:48:31;16.50;99.90
4364;DHT22;15337;48.202;12.770;2022-10-13T09:50:58;16.60;99.90
4364;DHT22;15337;48.202;12.770;2022-10-13T09:53:30;16.60;99.90
4364;DHT22;15337;48.202;12.770;2022-10-13T09:56:15;16.70;99.90
4364;DHT22;15337;48.202;12.770;2022-10-13T09:58:47;16.80;99.90
4364;DHT22;15337;48.202;12.770;2022-10-13T10:01:22;16.80;99.90
4364;DHT22;15337;48.202;12.770;2022-10-13T10:03:51;16.90;99.90
4364;DHT22;15337;48.202;12.770;2022-10-13T10:06:19;16.90;99.90
4364;DHT22;15337;48.202;12.770;2022-10-13T10:08:52;17.00;99.90
4364;DHT22;15337;48.202;12.770;2022-10-13T10:11:26;17.00;99.90
4364;DHT22;15337;48.202;12.770;2022-10-13T10:13:54;16.80;99.90
4364;DHT22;15337;48.202;12.770;2022-10-13T10:16:26;16.90;99.90
4364;DHT22;15337;48.202;12.770;2022-10-13T10:18:59;17.00;99.90
4364;DHT22;15337;48.202;12.770;2022-10-13T10:21:34;17.00;99.90
4364;DHT22;15337;48.202;12.770;2022-10-13T10:24:07;17.00;99.90
4364;DHT22;15337;48.202;12.770;2022-10-13T10:26:51;17.10;99.90
4364;DHT22;15337;48.202;12.770;2022-10-13T10:29:28;17.20;99.90
4364;DHT22;15337;48.202;12.770;2022-10-13T10:32:08;17.30;99.90
4364;DHT22;15337;48.202;12.770;2022-10-13T10:34:41;17.30;99.90
4364;DHT22;15337;48.202;12.770;2022-10-13T10:37:15;17.30;99.90
4364;DHT22;15337;48.202;12.770;2022-10-13T10:39:48;17.30;99.90
4364;DHT22;15337;48.202;12.770;2022-10-13T10:42:57;17.40;99.90
4364;DHT22;15337;48.202;12.770;2022-10-13T10:45:28;17.40;99.90
4364;DHT22;15337;48.202;12.770;2022-10-13T10:48:00;17.30;99.90
4364;DHT22;15337;48.202;12.770;2022-10-13T10:50:28;17.40;99.90
4364;DHT22;15337;48.202;12.770;2022-10-13T10:53:01;17.40;99.90
4364;DHT22;15337;48.202;12.770;2022-10-13T10:55:33;17.40;99.90
4364;DHT22;15337;48.202;12.770;2022-10-13T10:58:17;17.50;99.90
4364;DHT22;15337;48.202;12.770;2022-10-13T11:00:50;17.60;99.90
4364;DHT22;15337;48.202;12.770;2022-10-13T11:03:30;17.60;99.90
4364;DHT22;15337;48.202;12.770;2022-10-13T11:06:02;17.60;99.10
4364;DHT22;15337;48.202;12.770;2022-10-13T11:08:38;17.70;99.90
4364;DHT22;15337;48.202;12.770;2022-10-13T11:11:28;17.70;99.60
4364;DHT22;15337;48.202;12.770;2022-10-13T11:13:57;17.70;99.90
4364;DHT22;15337;48.202;12.770;2022-10-13T11:16:28;17.70;99.90
4364;DHT22;15337;48.202;12.770;2022-10-13T11:18:58;17.70;99.90
4364;DHT22;15337;48.202;12.770;2022-10-13T11:27:52;17.90;99.90
4364;DHT22;15337;48.202;12.770;2022-10-13T11:30:43;17.90;99.90
4364;DHT22;15337;48.202;12.770;2022-10-13T11:36:36;18.10;99.90
4364;DHT22;15337;48.202;12.770;2022-10-13T11:42:37;18.10;99.40
4364;DHT22;15337;48.202;12.770;2022-10-13T11:45:16;18.00;97.90
4364;DHT22;15337;48.202;12.770;2022-10-13T11:48:09;18.10;99.40
4364;DHT22;15337;48.202;12.770;2022-10-13T11:50:46;18.10;99.30
4364;DHT22;15337;48.202;12.770;2022-10-13T11:53:17;18.20;99.50
4364;DHT22;15337;48.202;12.770;2022-10-13T11:55:48;18.10;98.20
4364;DHT22;15337;48.202;12.770;2022-10-13T11:58:18;18.20;97.80
4364;DHT22;15337;48.202;12.770;2022-10-13T12:00:50;18.20;98.50
4364;DHT22;15337;48.202;12.770;2022-10-13T12:03:25;18.30;99.10
4364;DHT22;15337;48.202;12.770;2022-10-13T12:05:54;18.30;98.50
4364;DHT22;15337;48.202;12.770;2022-10-13T12:08:23;18.30;99.30
4364;DHT22;15337;48.202;12.770;2022-10-13T12:10:52;18.40;98.40
4364;DHT22;15337;48.202;12.770;2022-10-13T12:13:24;18.40;98.60
4364;DHT22;15337;48.202;12.770;2022-10-13T12:16:00;18.40;97.80
4364;DHT22;15337;48.202;12.770;2022-10-13T12:18:31;18.40;98.70
4364;DHT22;15337;48.202;12.770;2022-10-13T12:21:00;18.50;98.40
4364;DHT22;15337;48.202;12.770;2022-10-13T12:23:28;18.50;99.50
4364;DHT22;15337;48.202;12.770;2022-10-13T12:25:55;18.50;96.80
4364;DHT22;15337;48.202;12.770;2022-10-13T12:28:24;18.50;97.40
4364;DHT22;15337;48.202;12.770;2022-10-13T12:30:52;18.50;96.60
4364;DHT22;15337;48.202;12.770;2022-10-13T12:33:25;18.60;96.60
4364;DHT22;15337;48.202;12.770;2022-10-13T12:35:54;18.70;98.00
4364;DHT22;15337;48.202;12.770;2022-10-13T12:38:21;18.70;95.00
4364;DHT22;15337;48.202;12.770;2022-10-13T12:40:50;18.60;94.80
4364;DHT22;15337;48.202;12.770;2022-10-13T12:43:21;18.50;95.90
4364;DHT22;15337;48.202;12.770;2022-10-13T12:45:49;18.40;94.70
4364;DHT22;15337;48.202;12.770;2022-10-13T12:48:30;18.50;96.00
4364;DHT22;15337;48.202;12.770;2022-10-13T12:51:24;18.60;95.80
4364;DHT22;15337;48.202;12.770;2022-10-13T12:53:53;18.70;97.60
4364;DHT22;15337;48.202;12.770;2022-10-13T12:56:26;18.70;95.40
4364;DHT22;15337;48.202;12.770;2022-10-13T12:58:54;18.80;98.60
4364;DHT22;15337;48.202;12.770;2022-10-13T13:01:30;18.90;97.10
4364;DHT22;15337;48.202;12.770;2022-10-13T13:03:59;19.00;95.60
4364;DHT22;15337;48.202;12.770;2022-10-13T13:06:33;19.10;95.30
4364;DHT22;15337;48.202;12.770;2022-10-13T13:09:20;19.10;94.10
4364;DHT22;15337;48.202;12.770;2022-10-13T13:11:48;18.90;94.00
4364;DHT22;15337;48.202;12.770;2022-10-13T13:14:33;18.90;94.90
4364;DHT22;15337;48.202;12.770;2022-10-13T13:17:05;18.90;94.10
4364;DHT22;15337;48.202;12.770;2022-10-13T13:19:33;18.90;95.00
4364;DHT22;15337;48.202;12.770;2022-10-13T13:22:02;19.00;94.60
4364;DHT22;15337;48.202;12.770;2022-10-13T13:24:30;19.00;95.70
4364;DHT22;15337;48.202;12.770;2022-10-13T13:26:57;19.00;95.80
4364;DHT22;15337;48.202;12.770;2022-10-13T13:29:24;19.10;94.70
4364;DHT22;15337;48.202;12.770;2022-10-13T13:31:51;19.10;95.10
4364;DHT22;15337;48.202;12.770;2022-10-13T13:34:18;19.00;94.90
4364;DHT22;15337;48.202;12.770;2022-10-13T13:36:46;19.00;94.80
4364;DHT22;15337;48.202;12.770;2022-10-13T13:39:16;19.00;95.00
4364;DHT22;15337;48.202;12.770;2022-10-13T13:41:43;19.00;94.50
4364;DHT22;15337;48.202;12.770;2022-10-13T13:44:11;19.00;94.00
4364;DHT22;15337;48.202;12.770;2022-10-13T13:46:38;18.90;93.30
4364;DHT22;15337;48.202;12.770;2022-10-13T13:49:07;18.80;92.90
4364;DHT22;15337;48.202;12.770;2022-10-13T13:51:34;18.80;92.50
4364;DHT22;15337;48.202;12.770;2022-10-13T13:54:01;18.80;94.40
4364;DHT22;15337;48.202;12.770;2022-10-13T13:56:29;18.80;93.90
4364;DHT22;15337;48.202;12.770;2022-10-13T13:58:56;18.80;93.20
4364;DHT22;15337;48.202;12.770;2022-10-13T14:01:23;18.70;93.10
4364;DHT22;15337;48.202;12.770;2022-10-13T14:03:50;18.60;92.80
4364;DHT22;15337;48.202;12.770;2022-10-13T14:06:18;18.70;93.50
4364;DHT22;15337;48.202;12.770;2022-10-13T14:08:45;18.60;93.00
4364;DHT22;15337;48.202;12.770;2022-10-13T14:11:12;18.60;92.60
4364;DHT22;15337;48.202;12.770;2022-10-13T14:13:40;18.50;94.30
4364;DHT22;15337;48.202;12.770;2022-10-13T14:16:13;18.60;93.70
4364;DHT22;15337;48.202;12.770;2022-10-13T14:18:41;18.60;93.90
4364;DHT22;15337;48.202;12.770;2022-10-13T14:21:08;18.70;96.30
4364;DHT22;15337;48.202;12.770;2022-10-13T14:23:35;18.70;95.10
4364;DHT22;15337;48.202;12.770;2022-10-13T14:26:05;18.60;94.10
4364;DHT22;15337;48.202;12.770;2022-10-13T14:28:32;18.60;94.40
4364;DHT22;15337;48.202;12.770;2022-10-13T14:31:03;18.60;95.40
4364;DHT22;15337;48.202;12.770;2022-10-13T14:33:30;18.60;96.40
4364;DHT22;15337;48.202;12.770;2022-10-13T14:36:01;18.50;95.70
4364;DHT22;15337;48.202;12.770;2022-10-13T14:38:28;18.60;96.50
4364;DHT22;15337;48.202;12.770;2022-10-13T14:40:58;18.60;96.70
4364;DHT22;15337;48.202;12.770;2022-10-13T14:43:26;18.50;95.30
4364;DHT22;15337;48.202;12.770;2022-10-13T14:45:53;18.50;96.00
4364;DHT22;15337;48.202;12.770;2022-10-13T14:48:22;18.50;97.10
4364;DHT22;15337;48.202;12.770;2022-10-13T14:50:48;18.50;97.40
4364;DHT22;15337;48.202;12.770;2022-10-13T14:53:15;18.40;97.10
4364;DHT22;15337;48.202;12.770;2022-10-13T14:55:43;18.40;97.30
4364;DHT22;15337;48.202;12.770;2022-10-13T14:58:11;18.30;97.10
4364;DHT22;15337;48.202;12.770;2022-10-13T15:00:38;18.20;97.00
4364;DHT22;15337;48.202;12.770;2022-10-13T15:03:08;18.10;97.20
4364;DHT22;15337;48.202;12.770;2022-10-13T15:05:37;18.10;97.90
4364;DHT22;15337;48.202;12.770;2022-10-13T15:08:04;18.00;97.60
4364;DHT22;15337;48.202;12.770;2022-10-13T15:10:31;18.00;97.40
4364;DHT22;15337;48.202;12.770;2022-10-13T15:12:58;18.00;97.50
4364;DHT22;15337;48.202;12.770;2022-10-13T15:15:25;18.00;98.10
4364;DHT22;15337;48.202;12.770;2022-10-13T15:17:53;17.90;98.20
4364;DHT22;15337;48.202;12.770;2022-10-13T15:20:20;17.90;98.40
4364;DHT22;15337;48.202;12.770;2022-10-13T15:22:48;17.80;98.90
4364;DHT22;15337;48.202;12.770;2022-10-13T15:25:15;17.80;99.20
4364;DHT22;15337;48.202;12.770;2022-10-13T15:27:42;17.70;99.90
4364;DHT22;15337;48.202;12.770;2022-10-13T15:30:10;17.70;99.90
4364;DHT22;15337;48.202;12.770;2022-10-13T15:32:37;17.80;99.90
4364;DHT22;15337;48.202;12.770;2022-10-13T15:35:05;17.70;99.70
4364;DHT22;15337;48.202;12.770;2022-10-13T15:37:32;17.70;99.90
4364;DHT22;15337;48.202;12.770;2022-10-13T15:40:00;17.70;99.90
4364;DHT22;15337;48.202;12.770;2022-10-13T15:42:27;17.60;99.90
4364;DHT22;15337;48.202;12.770;2022-10-13T15:44:54;17.60;99.90
4364;DHT22;15337;48.202;12.770;2022-10-13T15:47:21;17.50;99.90
4364;DHT22;15337;48.202;12.770;2022-10-13T15:49:48;17.50;99.90
4364;DHT22;15337;48.202;12.770;2022-10-13T15:52:15;17.50;99.90
4364;DHT22;15337;48.202;12.770;2022-10-13T15:54:41;17.40;99.90
4364;DHT22;15337;48.202;12.770;2022-10-13T15:57:10;17.40;99.90
4364;DHT22;15337;48.202;12.770;2022-10-13T15:59:36;17.30;99.90